SWA278 KCLT-KRDU
Flight info
| Callsign | SWA278 |
|---|---|
| Flight time | 0h 38m |
| Altitude | 15000 |
| Route | LILLS3 LILLS ETBUY DMSTR2 |
| Aircraft | B38M/M-SDE1FGHILORVWXY/HB1 |
Departure
| Time | 2026-05-07 00:06 |
|---|---|
| Airport | Charlotte Douglas International Airport (KCLT) |
Arrival
| Time | 2026-05-07 00:44 |
|---|---|
| Airport | Raleigh-Durham International Airport (KRDU) |
| Time | Latitude | Longitude | Altitude | Speed | Heading |
|---|---|---|---|---|---|
| 2026-05-06 23:28 | 35.22268 | -80.93948 | 731 ft | 0 kts | 349° |
| 2026-05-06 23:54 | 35.22258 | -80.93946 | 731 ft | 3 kts | 349° |
| 2026-05-06 23:54 | 35.22239 | -80.93942 | 729 ft | 3 kts | 349° |
| 2026-05-06 23:54 | 35.22221 | -80.93937 | 730 ft | 3 kts | 349° |
| 2026-05-06 23:55 | 35.22203 | -80.93933 | 730 ft | 3 kts | 349° |
| 2026-05-06 23:55 | 35.22193 | -80.93931 | 728 ft | 0 kts | 349° |
| 2026-05-06 23:59 | 35.22195 | -80.93929 | 730 ft | 0 kts | 20° |
| 2026-05-06 23:59 | 35.22196 | -80.93926 | 730 ft | 1 kts | 59° |
| 2026-05-07 00:00 | 35.22196 | -80.93922 | 730 ft | 0 kts | 84° |
| 2026-05-07 00:01 | 35.22196 | -80.93920 | 730 ft | 2 kts | 85° |
| 2026-05-07 00:01 | 35.22197 | -80.93863 | 731 ft | 11 kts | 91° |
| 2026-05-07 00:01 | 35.22196 | -80.93793 | 731 ft | 7 kts | 91° |
| 2026-05-07 00:02 | 35.22212 | -80.93739 | 731 ft | 7 kts | 32° |
| 2026-05-07 00:02 | 35.22268 | -80.93732 | 732 ft | 9 kts | 357° |
| 2026-05-07 00:02 | 35.22336 | -80.93738 | 732 ft | 11 kts | 355° |
| 2026-05-07 00:02 | 35.22408 | -80.93745 | 733 ft | 6 kts | 356° |
| 2026-05-07 00:03 | 35.22447 | -80.93749 | 733 ft | 6 kts | 355° |
| 2026-05-07 00:03 | 35.22482 | -80.93746 | 734 ft | 5 kts | 23° |
| 2026-05-07 00:03 | 35.22485 | -80.93744 | 734 ft | 0 kts | 28° |
| 2026-05-07 00:04 | 35.22487 | -80.93742 | 734 ft | 2 kts | 31° |
| 2026-05-07 00:05 | 35.22509 | -80.93694 | 733 ft | 9 kts | 80° |
| 2026-05-07 00:05 | 35.22505 | -80.93630 | 733 ft | 7 kts | 122° |
| 2026-05-07 00:05 | 35.22466 | -80.93614 | 733 ft | 0 kts | 176° |
| 2026-05-07 00:05 | 35.22448 | -80.93612 | 733 ft | 21 kts | 176° |
| 2026-05-07 00:06 | 35.21985 | -80.93574 | 730 ft | 110 kts | 176° |
| 2026-05-07 00:06 | 35.20959 | -80.93509 | 723 ft | 183 kts | 185° |
| 2026-05-07 00:06 | 35.19632 | -80.93532 | 1546 ft | 188 kts | 180° |
| 2026-05-07 00:06 | 35.18338 | -80.93361 | 2689 ft | 197 kts | 176° |
| 2026-05-07 00:07 | 35.16945 | -80.92974 | 3441 ft | 217 kts | 171° |
| 2026-05-07 00:07 | 35.15565 | -80.91939 | 4098 ft | 250 kts | 140° |
| 2026-05-07 00:07 | 35.14457 | -80.90196 | 4953 ft | 267 kts | 132° |
| 2026-05-07 00:07 | 35.13345 | -80.88304 | 5832 ft | 278 kts | 132° |
| 2026-05-07 00:08 | 35.12214 | -80.86362 | 6729 ft | 286 kts | 127° |
| 2026-05-07 00:08 | 35.11541 | -80.83995 | 7473 ft | 306 kts | 101° |
| 2026-05-07 00:08 | 35.11205 | -80.81412 | 8227 ft | 317 kts | 104° |
| 2026-05-07 00:08 | 35.10769 | -80.78762 | 9191 ft | 319 kts | 104° |
| 2026-05-07 00:09 | 35.10306 | -80.76075 | 10058 ft | 325 kts | 104° |
| 2026-05-07 00:09 | 35.09816 | -80.73316 | 10672 ft | 341 kts | 105° |
| 2026-05-07 00:09 | 35.09289 | -80.70404 | 11100 ft | 361 kts | 105° |
| 2026-05-07 00:09 | 35.08731 | -80.67351 | 11636 ft | 375 kts | 105° |
| 2026-05-07 00:10 | 35.08156 | -80.64209 | 12364 ft | 381 kts | 105° |
| 2026-05-07 00:10 | 35.07569 | -80.61011 | 12840 ft | 388 kts | 105° |
| 2026-05-07 00:10 | 35.06987 | -80.57842 | 12957 ft | 388 kts | 105° |
| 2026-05-07 00:10 | 35.06397 | -80.54632 | 12995 ft | 388 kts | 105° |
| 2026-05-07 00:11 | 35.05805 | -80.51415 | 12984 ft | 388 kts | 104° |
| 2026-05-07 00:11 | 35.05212 | -80.48200 | 12990 ft | 389 kts | 104° |
| 2026-05-07 00:11 | 35.04616 | -80.44974 | 12989 ft | 389 kts | 104° |
| 2026-05-07 00:11 | 35.04019 | -80.41751 | 12994 ft | 389 kts | 104° |
| 2026-05-07 00:12 | 35.03625 | -80.39626 | 12986 ft | 389 kts | 104° |
| 2026-05-07 00:12 | 35.03025 | -80.36397 | 12994 ft | 389 kts | 105° |
| 2026-05-07 00:12 | 35.02427 | -80.33174 | 13000 ft | 389 kts | 105° |
| 2026-05-07 00:12 | 35.01829 | -80.29960 | 12992 ft | 389 kts | 105° |
| 2026-05-07 00:13 | 35.01228 | -80.26738 | 12994 ft | 389 kts | 105° |
| 2026-05-07 00:13 | 35.00628 | -80.23526 | 12998 ft | 389 kts | 105° |
| 2026-05-07 00:13 | 35.00023 | -80.20289 | 13245 ft | 391 kts | 104° |
| 2026-05-07 00:13 | 34.99417 | -80.17053 | 14108 ft | 393 kts | 104° |
| 2026-05-07 00:14 | 34.98703 | -80.13844 | 14622 ft | 403 kts | 109° |
| 2026-05-07 00:14 | 34.97880 | -80.10570 | 14720 ft | 404 kts | 109° |
| 2026-05-07 00:14 | 34.97066 | -80.07282 | 14873 ft | 405 kts | 109° |
| 2026-05-07 00:14 | 34.96257 | -80.03986 | 14977 ft | 406 kts | 108° |
| 2026-05-07 00:15 | 34.95448 | -80.00686 | 15004 ft | 406 kts | 108° |
| 2026-05-07 00:15 | 34.94661 | -79.97370 | 14986 ft | 407 kts | 104° |
| 2026-05-07 00:15 | 34.94016 | -79.94012 | 15010 ft | 407 kts | 105° |
| 2026-05-07 00:15 | 34.93337 | -79.90668 | 14996 ft | 407 kts | 105° |
| 2026-05-07 00:16 | 34.92658 | -79.87321 | 15002 ft | 407 kts | 105° |
| 2026-05-07 00:16 | 34.91983 | -79.83977 | 15014 ft | 406 kts | 105° |
| 2026-05-07 00:16 | 34.91311 | -79.80633 | 15004 ft | 406 kts | 105° |
| 2026-05-07 00:16 | 34.90636 | -79.77286 | 15001 ft | 407 kts | 105° |
| 2026-05-07 00:17 | 34.89955 | -79.73931 | 15006 ft | 408 kts | 105° |
| 2026-05-07 00:17 | 34.89275 | -79.70578 | 15009 ft | 408 kts | 105° |
| 2026-05-07 00:17 | 34.88593 | -79.67225 | 14978 ft | 408 kts | 105° |
| 2026-05-07 00:17 | 34.87918 | -79.63909 | 14977 ft | 408 kts | 105° |
| 2026-05-07 00:18 | 34.87239 | -79.60547 | 14972 ft | 408 kts | 105° |
| 2026-05-07 00:18 | 34.86706 | -79.57153 | 14956 ft | 408 kts | 93° |
| 2026-05-07 00:18 | 34.86983 | -79.53736 | 14993 ft | 405 kts | 72° |
| 2026-05-07 00:18 | 34.88107 | -79.50641 | 15008 ft | 398 kts | 52° |
| 2026-05-07 00:19 | 34.89938 | -79.48193 | 14971 ft | 386 kts | 31° |
| 2026-05-07 00:19 | 34.92237 | -79.46665 | 14974 ft | 371 kts | 11° |
| 2026-05-07 00:19 | 34.94685 | -79.46269 | 14954 ft | 351 kts | 346° |
| 2026-05-07 00:19 | 34.96918 | -79.47159 | 14966 ft | 332 kts | 321° |
| 2026-05-07 00:20 | 34.98669 | -79.48935 | 14975 ft | 327 kts | 311° |
| 2026-05-07 00:20 | 35.00319 | -79.50850 | 14965 ft | 327 kts | 311° |
| 2026-05-07 00:20 | 35.01972 | -79.52774 | 14969 ft | 328 kts | 311° |
| 2026-05-07 00:20 | 35.03623 | -79.54695 | 14971 ft | 328 kts | 311° |
| 2026-05-07 00:21 | 35.05273 | -79.56615 | 14991 ft | 328 kts | 311° |
| 2026-05-07 00:21 | 35.06931 | -79.58541 | 14972 ft | 328 kts | 311° |
| 2026-05-07 00:21 | 35.08569 | -79.60439 | 14969 ft | 329 kts | 312° |
| 2026-05-07 00:21 | 35.10521 | -79.61969 | 14943 ft | 341 kts | 335° |
| 2026-05-07 00:22 | 35.12930 | -79.62289 | 14963 ft | 361 kts | 0° |
| 2026-05-07 00:22 | 35.15358 | -79.61269 | 14964 ft | 380 kts | 26° |
| 2026-05-07 00:22 | 35.17320 | -79.59037 | 14990 ft | 396 kts | 51° |
| 2026-05-07 00:22 | 35.18636 | -79.56087 | 15014 ft | 402 kts | 61° |
| 2026-05-07 00:23 | 35.19847 | -79.52993 | 14999 ft | 402 kts | 61° |
| 2026-05-07 00:23 | 35.21056 | -79.49897 | 15010 ft | 402 kts | 61° |
| 2026-05-07 00:23 | 35.22260 | -79.46812 | 15007 ft | 402 kts | 61° |
| 2026-05-07 00:23 | 35.23465 | -79.43726 | 15007 ft | 402 kts | 61° |
| 2026-05-07 00:24 | 35.24660 | -79.40665 | 15001 ft | 402 kts | 61° |
| 2026-05-07 00:24 | 35.25862 | -79.37591 | 15005 ft | 401 kts | 61° |
| 2026-05-07 00:24 | 35.27140 | -79.34576 | 14993 ft | 396 kts | 51° |
| 2026-05-07 00:24 | 35.28958 | -79.32186 | 15023 ft | 372 kts | 31° |
| 2026-05-07 00:25 | 35.31159 | -79.30777 | 15022 ft | 344 kts | 9° |
| 2026-05-07 00:25 | 35.33416 | -79.30459 | 15015 ft | 314 kts | 346° |
| 2026-05-07 00:25 | 35.35429 | -79.31187 | 15013 ft | 295 kts | 325° |
| 2026-05-07 00:25 | 35.37290 | -79.32287 | 14987 ft | 305 kts | 337° |
| 2026-05-07 00:26 | 35.39501 | -79.32542 | 14983 ft | 335 kts | 358° |
| 2026-05-07 00:26 | 35.41841 | -79.32126 | 14984 ft | 349 kts | 2° |
| 2026-05-07 00:26 | 35.44287 | -79.31626 | 14990 ft | 355 kts | 4° |
| 2026-05-07 00:26 | 35.46702 | -79.30885 | 14988 ft | 361 kts | 10° |
| 2026-05-07 00:27 | 35.49101 | -79.29955 | 14985 ft | 365 kts | 15° |
| 2026-05-07 00:27 | 35.51374 | -79.28506 | 14994 ft | 372 kts | 26° |
| 2026-05-07 00:27 | 35.53520 | -79.26792 | 14995 ft | 374 kts | 29° |
| 2026-05-07 00:27 | 35.55638 | -79.24925 | 14991 ft | 376 kts | 31° |
| 2026-05-07 00:28 | 35.57713 | -79.22972 | 14998 ft | 375 kts | 32° |
| 2026-05-07 00:28 | 35.59738 | -79.20995 | 14457 ft | 371 kts | 33° |
| 2026-05-07 00:28 | 35.61750 | -79.18998 | 13747 ft | 370 kts | 34° |
| 2026-05-07 00:28 | 35.63632 | -79.16846 | 13005 ft | 373 kts | 47° |
| 2026-05-07 00:29 | 35.65166 | -79.14291 | 12313 ft | 370 kts | 50° |
| 2026-05-07 00:29 | 35.66693 | -79.11742 | 11658 ft | 366 kts | 50° |
| 2026-05-07 00:30 | 35.71163 | -79.04264 | 9837 ft | 357 kts | 51° |
| 2026-05-07 00:30 | 35.72624 | -79.01817 | 9326 ft | 349 kts | 50° |
| 2026-05-07 00:30 | 35.74032 | -78.99455 | 9036 ft | 334 kts | 50° |
| 2026-05-07 00:30 | 35.75367 | -78.97214 | 8762 ft | 322 kts | 50° |
| 2026-05-07 00:31 | 35.76671 | -78.95024 | 8428 ft | 312 kts | 50° |
| 2026-05-07 00:31 | 35.77936 | -78.92899 | 8099 ft | 303 kts | 50° |
| 2026-05-07 00:31 | 35.78973 | -78.90711 | 7854 ft | 294 kts | 71° |
| 2026-05-07 00:31 | 35.79320 | -78.88278 | 7672 ft | 282 kts | 83° |
| 2026-05-07 00:32 | 35.79571 | -78.85869 | 7537 ft | 284 kts | 83° |
| 2026-05-07 00:32 | 35.79817 | -78.83465 | 7390 ft | 284 kts | 83° |
| 2026-05-07 00:32 | 35.80059 | -78.81051 | 7233 ft | 283 kts | 83° |
| 2026-05-07 00:32 | 35.80295 | -78.78650 | 7091 ft | 282 kts | 83° |
| 2026-05-07 00:33 | 35.80529 | -78.76259 | 6986 ft | 280 kts | 83° |
| 2026-05-07 00:33 | 35.80766 | -78.73874 | 6975 ft | 281 kts | 81° |
| 2026-05-07 00:33 | 35.81429 | -78.71649 | 6937 ft | 274 kts | 50° |
| 2026-05-07 00:33 | 35.82678 | -78.69948 | 6975 ft | 270 kts | 41° |
| 2026-05-07 00:34 | 35.84013 | -78.68280 | 6697 ft | 271 kts | 39° |
| 2026-05-07 00:34 | 35.85328 | -78.66676 | 6465 ft | 268 kts | 39° |
| 2026-05-07 00:34 | 35.86658 | -78.65056 | 6160 ft | 268 kts | 39° |
| 2026-05-07 00:34 | 35.87974 | -78.63450 | 6006 ft | 266 kts | 40° |
| 2026-05-07 00:35 | 35.89288 | -78.61850 | 5970 ft | 266 kts | 39° |
| 2026-05-07 00:35 | 35.90611 | -78.60240 | 5986 ft | 267 kts | 40° |
| 2026-05-07 00:35 | 35.91933 | -78.58628 | 5978 ft | 265 kts | 40° |
| 2026-05-07 00:35 | 35.93228 | -78.57051 | 5970 ft | 257 kts | 39° |
| 2026-05-07 00:36 | 35.94485 | -78.55521 | 5630 ft | 254 kts | 40° |
| 2026-05-07 00:36 | 35.95740 | -78.53984 | 5250 ft | 253 kts | 41° |
| 2026-05-07 00:36 | 35.96995 | -78.52447 | 4893 ft | 255 kts | 41° |
| 2026-05-07 00:36 | 35.98330 | -78.51067 | 4610 ft | 248 kts | 20° |
| 2026-05-07 00:37 | 35.99938 | -78.50746 | 4293 ft | 227 kts | 341° |
| 2026-05-07 00:37 | 36.01230 | -78.51574 | 4124 ft | 202 kts | 313° |
| 2026-05-07 00:37 | 36.02258 | -78.52719 | 4123 ft | 195 kts | 311° |
| 2026-05-07 00:37 | 36.03232 | -78.53842 | 4059 ft | 193 kts | 307° |
| 2026-05-07 00:38 | 36.03928 | -78.55192 | 3948 ft | 183 kts | 281° |
| 2026-05-07 00:38 | 36.03875 | -78.56705 | 3893 ft | 177 kts | 247° |
| 2026-05-07 00:38 | 36.03245 | -78.58019 | 4019 ft | 179 kts | 238° |
| 2026-05-07 00:38 | 36.02507 | -78.59271 | 4046 ft | 180 kts | 236° |
| 2026-05-07 00:39 | 36.01717 | -78.60464 | 4024 ft | 179 kts | 233° |
| 2026-05-07 00:39 | 36.00904 | -78.61598 | 3878 ft | 176 kts | 231° |
| 2026-05-07 00:39 | 36.00083 | -78.62685 | 3669 ft | 169 kts | 231° |
| 2026-05-07 00:39 | 35.99288 | -78.63715 | 3472 ft | 159 kts | 230° |
| 2026-05-07 00:40 | 35.98567 | -78.64629 | 3332 ft | 140 kts | 230° |
| 2026-05-07 00:40 | 35.97901 | -78.65469 | 3156 ft | 133 kts | 230° |
| 2026-05-07 00:40 | 35.97265 | -78.66270 | 2967 ft | 128 kts | 229° |
| 2026-05-07 00:40 | 35.96646 | -78.67046 | 2816 ft | 127 kts | 229° |
| 2026-05-07 00:41 | 35.96022 | -78.67827 | 2658 ft | 128 kts | 229° |
| 2026-05-07 00:41 | 35.95397 | -78.68608 | 2484 ft | 128 kts | 228° |
| 2026-05-07 00:41 | 35.94773 | -78.69386 | 2295 ft | 127 kts | 228° |
| 2026-05-07 00:41 | 35.94148 | -78.70166 | 2140 ft | 128 kts | 228° |
| 2026-05-07 00:42 | 35.93533 | -78.70934 | 1960 ft | 128 kts | 228° |
| 2026-05-07 00:42 | 35.92904 | -78.71716 | 1797 ft | 128 kts | 227° |
| 2026-05-07 00:42 | 35.92278 | -78.72494 | 1632 ft | 128 kts | 228° |
| 2026-05-07 00:42 | 35.91645 | -78.73284 | 1457 ft | 130 kts | 227° |
| 2026-05-07 00:43 | 35.91022 | -78.74085 | 1287 ft | 129 kts | 229° |
| 2026-05-07 00:43 | 35.90407 | -78.74907 | 1090 ft | 132 kts | 227° |
| 2026-05-07 00:43 | 35.89744 | -78.75709 | 996 ft | 135 kts | 224° |
| 2026-05-07 00:43 | 35.89069 | -78.76518 | 816 ft | 136 kts | 228° |
| 2026-05-07 00:44 | 35.88399 | -78.77359 | 600 ft | 138 kts | 225° |
| 2026-05-07 00:44 | 35.87734 | -78.78180 | 430 ft | 133 kts | 223° |
| 2026-05-07 00:44 | 35.87167 | -78.78869 | 436 ft | 84 kts | 225° |
| 2026-05-07 00:44 | 35.87023 | -78.79050 | 422 ft | 11 kts | 237° |
| 2026-05-07 00:45 | 35.87024 | -78.79093 | 431 ft | 3 kts | 307° |
| 2026-05-07 00:45 | 35.87067 | -78.79099 | 429 ft | 10 kts | 11° |
| 2026-05-07 00:45 | 35.87121 | -78.79081 | 430 ft | 0 kts | 18° |
| 2026-05-07 00:45 | 35.87126 | -78.79079 | 430 ft | 1 kts | 19° |
| 2026-05-07 00:46 | 35.87140 | -78.79072 | 427 ft | 2 kts | 23° |
| 2026-05-07 00:46 | 35.87146 | -78.79068 | 427 ft | 0 kts | 26° |
| 2026-05-07 00:47 | 35.87159 | -78.79059 | 435 ft | 7 kts | 31° |
| 2026-05-07 00:47 | 35.87201 | -78.79017 | 429 ft | 8 kts | 44° |
| 2026-05-07 00:47 | 35.87237 | -78.78972 | 424 ft | 4 kts | 44° |
| 2026-05-07 00:47 | 35.87272 | -78.78964 | 426 ft | 5 kts | 347° |
| 2026-05-07 00:48 | 35.87299 | -78.78978 | 435 ft | 4 kts | 333° |
| 2026-05-07 00:48 | 35.87314 | -78.78990 | 434 ft | 3 kts | 319° |
| 2026-05-07 00:48 | 35.87326 | -78.79002 | 432 ft | 3 kts | 318° |
| 2026-05-07 00:48 | 35.87338 | -78.79016 | 436 ft | 0 kts | 315° |